Time;durP1;ratioP1;P1;durP2;ratioP2;P2;SDS_P1;SDS_P2;PMS_P1;PMS_P2;Temp;Humidity;BMP_temperature;BMP_pressure;BME280_temperature;BME280_humidity;BME280_pressure;Samples;Min_cycle;Max_cycle;Signal;HPM_P1;HPM_P2
2023/08/06 00:00:51;;;;;;;9.48;7.80;;;24.60;92.80;;;;;;6137945;28;80838;-53
2023/08/06 00:03:51;;;;;;;10.00;8.00;;;24.60;92.70;;;;;;6109640;28;80780;-55
2023/08/06 00:06:52;;;;;;;9.50;7.72;;;24.60;92.80;;;;;;6126033;28;80700;-56
2023/08/06 00:09:52;;;;;;;10.40;7.63;;;24.60;92.80;;;;;;6117039;28;80984;-55
2023/08/06 00:12:53;;;;;;;8.77;7.88;;;24.60;92.70;;;;;;6128074;28;80266;-58
2023/08/06 00:15:53;;;;;;;10.68;7.75;;;24.60;92.70;;;;;;6118572;28;82228;-55
2023/08/06 00:18:54;;;;;;;10.85;7.68;;;24.60;92.60;;;;;;6127788;28;81209;-48
2023/08/06 00:21:54;;;;;;;9.60;8.27;;;24.60;92.70;;;;;;6141291;28;81119;-45
2023/08/06 00:24:57;;;;;;;10.15;7.60;;;24.60;92.60;;;;;;6118166;28;80736;-49
2023/08/06 00:27:58;;;;;;;13.15;8.45;;;24.60;92.50;;;;;;6128108;28;81948;-48
2023/08/06 00:30:58;;;;;;;10.32;8.07;;;24.60;92.60;;;;;;6117801;28;80515;-49
2023/08/06 00:33:59;;;;;;;13.40;9.80;;;24.60;92.50;;;;;;6127477;28;80224;-47
2023/08/06 00:36:59;;;;;;;12.40;9.85;;;24.70;92.70;;;;;;6114005;28;80974;-64
2023/08/06 00:40:00;;;;;;;13.88;10.40;;;24.60;92.70;;;;;;6126957;28;80403;-65
2023/08/06 00:43:00;;;;;;;14.10;10.52;;;24.60;92.60;;;;;;6121527;28;83074;-65
2023/08/06 00:46:01;;;;;;;14.15;11.10;;;24.60;92.60;;;;;;6104824;28;83037;-64
2023/08/06 00:49:02;;;;;;;16.98;11.65;;;24.60;92.60;;;;;;6137092;28;83898;-64
2023/08/06 00:52:02;;;;;;;17.50;13.00;;;24.60;92.70;;;;;;6102886;28;84960;-64
2023/08/06 00:55:03;;;;;;;23.98;14.00;;;24.60;92.60;;;;;;6107639;28;85728;-64
2023/08/06 00:58:03;;;;;;;18.10;12.70;;;24.60;93.10;;;;;;6100748;28;89018;-64
2023/08/06 01:01:04;;;;;;;18.17;12.27;;;24.60;92.70;;;;;;6105971;28;85181;-64
2023/08/06 01:04:04;;;;;;;20.75;15.07;;;24.60;92.50;;;;;;6106863;28;85585;-64
2023/08/06 01:07:05;;;;;;;21.52;15.52;;;24.60;92.50;;;;;;6136493;28;84422;-64
2023/08/06 01:10:05;;;;;;;24.40;17.52;;;24.60;92.60;;;;;;6118700;28;85602;-66
2023/08/06 01:13:06;;;;;;;32.10;19.50;;;24.60;92.60;;;;;;6106824;28;84868;-65
2023/08/06 01:16:07;;;;;;;29.23;19.52;;;24.60;92.80;;;;;;6122741;28;84302;-64
2023/08/06 01:19:08;;;;;;;30.45;19.80;;;24.60;92.90;;;;;;6118768;28;84545;-64
2023/08/06 01:22:08;;;;;;;29.30;18.80;;;24.60;92.80;;;;;;6148541;28;83201;-65
2023/08/06 01:25:09;;;;;;;24.50;16.98;;;24.50;93.20;;;;;;6131862;28;84231;-62
2023/08/06 01:28:09;;;;;;;20.63;15.48;;;24.50;93.20;;;;;;6114355;28;86535;-63
2023/08/06 01:31:10;;;;;;;23.30;15.93;;;24.50;93.10;;;;;;6123348;28;85235;-65
2023/08/06 01:34:10;;;;;;;20.98;15.10;;;24.50;93.20;;;;;;6117620;28;86002;-64
2023/08/06 01:37:11;;;;;;;20.27;14.55;;;24.50;93.20;;;;;;6132442;28;83932;-64
2023/08/06 01:40:11;;;;;;;21.90;14.00;;;24.50;93.30;;;;;;6118464;28;83550;-65
2023/08/06 01:43:12;;;;;;;18.55;13.48;;;24.50;93.50;;;;;;6120640;28;83434;-64
2023/08/06 01:46:12;;;;;;;18.23;13.30;;;24.50;93.20;;;;;;6098561;28;85205;-65
2023/08/06 01:49:13;;;;;;;16.13;12.60;;;24.50;93.20;;;;;;6091413;28;85230;-56
2023/08/06 01:52:13;;;;;;;21.40;12.88;;;24.50;93.20;;;;;;6103894;28;83107;-57
2023/08/06 01:55:14;;;;;;;15.13;11.88;;;24.50;93.20;;;;;;6097993;28;85900;-56
2023/08/06 01:58:14;;;;;;;17.42;12.55;;;24.50;93.10;;;;;;6105662;28;83346;-56
2023/08/06 02:01:15;;;;;;;17.77;11.13;;;24.50;93.10;;;;;;6108568;28;85939;-55
2023/08/06 02:04:15;;;;;;;14.60;11.30;;;24.60;93.50;;;;;;6117020;28;85506;-55
2023/08/06 02:07:16;;;;;;;13.82;11.27;;;24.60;93.10;;;;;;6124693;28;83666;-55
2023/08/06 02:10:16;;;;;;;16.08;10.50;;;24.50;93.10;;;;;;6126414;28;85466;-54
2023/08/06 02:13:17;;;;;;;16.27;10.65;;;24.50;93.00;;;;;;6128256;28;83175;-58
2023/08/06 02:16:18;;;;;;;16.52;12.00;;;24.60;93.10;;;;;;6127945;28;85982;-57
2023/08/06 02:19:18;;;;;;;15.43;10.75;;;24.50;93.00;;;;;;6140260;28;85438;-54
2023/08/06 02:22:19;;;;;;;12.07;9.55;;;24.50;92.90;;;;;;6117305;28;83405;-54
2023/08/06 02:25:19;;;;;;;13.52;9.38;;;24.60;92.90;;;;;;6127970;28;85785;-48
2023/08/06 02:28:20;;;;;;;12.98;10.90;;;24.50;92.90;;;;;;6129329;28;80350;-65
2023/08/06 02:31:20;;;;;;;11.35;9.43;;;24.60;92.80;;;;;;6114061;28;85638;-63
2023/08/06 02:34:21;;;;;;;13.88;9.63;;;24.60;92.60;;;;;;6130678;28;84580;-64
2023/08/06 02:37:21;;;;;;;13.10;9.18;;;24.60;92.60;;;;;;6127985;28;82219;-64
2023/08/06 02:40:22;;;;;;;14.95;9.93;;;24.60;92.60;;;;;;6129125;28;83416;-64
2023/08/06 02:43:23;;;;;;;12.38;9.02;;;24.60;92.60;;;;;;6134185;28;83370;-65
2023/08/06 02:46:24;;;;;;;10.68;8.68;;;24.60;92.70;;;;;;6117469;28;83612;-63
2023/08/06 02:49:25;;;;;;;10.20;8.52;;;24.60;92.90;;;;;;6157064;28;83728;-63
2023/08/06 02:52:25;;;;;;;11.25;8.93;;;24.60;92.80;;;;;;6150560;28;83431;-64
2023/08/06 02:55:27;;;;;;;10.60;8.30;;;24.60;92.80;;;;;;6167807;28;81925;-64
2023/08/06 02:58:27;;;;;;;16.88;9.73;;;24.60;92.80;;;;;;6124485;28;80661;-65
2023/08/06 03:01:45;;;;;;;11.07;8.60;;;24.60;92.70;;;;;;6158491;28;80480;-64
2023/08/06 03:04:53;;;;;;;12.45;8.32;;;24.60;92.70;;;;;;6151135;28;82644;-64
2023/08/06 03:07:56;;;;;;;12.23;9.05;;;24.60;92.60;;;;;;6128184;28;81847;-64
2023/08/06 03:11:00;;;;;;;16.20;10.02;;;24.60;92.70;;;;;;6115091;28;82657;-65
2023/08/06 03:14:01;;;;;;;14.32;9.18;;;24.60;92.70;;;;;;6104911;28;84298;-64
2023/08/06 03:17:02;;;;;;;13.48;8.75;;;24.60;92.70;;;;;;6130433;28;85809;-63
2023/08/06 03:20:03;;;;;;;16.10;9.48;;;24.60;92.80;;;;;;6157030;28;82904;-64
2023/08/06 03:23:04;;;;;;;12.98;8.32;;;24.50;92.80;;;;;;6123314;28;83724;-63
2023/08/06 03:26:06;;;;;;;13.15;8.95;;;24.60;92.80;;;;;;6143961;28;86128;-61
2023/08/06 03:29:07;;;;;;;12.93;8.70;;;24.60;92.90;;;;;;6116277;28;83264;-63
2023/08/06 03:32:09;;;;;;;15.00;8.65;;;24.60;93.00;;;;;;6127366;28;83364;-64
2023/08/06 03:35:09;;;;;;;11.27;9.15;;;24.60;92.90;;;;;;6118664;28;83767;-63
2023/08/06 03:38:11;;;;;;;10.82;8.57;;;24.60;93.00;;;;;;6141484;28;80605;-64
2023/08/06 03:41:11;;;;;;;11.30;8.77;;;24.60;92.90;;;;;;6123428;28;80437;-65
2023/08/06 03:44:12;;;;;;;12.00;8.82;;;24.60;92.90;;;;;;6124438;28;83199;-63
2023/08/06 03:47:13;;;;;;;13.10;8.75;;;24.60;93.10;;;;;;6106729;28;82187;-63
2023/08/06 03:50:13;;;;;;;9.70;7.93;;;24.60;92.80;;;;;;6128124;28;80808;-64
2023/08/06 03:53:14;;;;;;;11.05;8.38;;;24.60;92.90;;;;;;6138069;28;83552;-64
2023/08/06 03:56:15;;;;;;;11.18;8.15;;;24.60;92.80;;;;;;6118444;28;81702;-64
2023/08/06 03:59:15;;;;;;;13.95;8.32;;;24.60;92.90;;;;;;6128595;28;80444;-64
2023/08/06 04:02:16;;;;;;;8.45;7.40;;;24.60;92.80;;;;;;6117851;28;83561;-65
2023/08/06 04:05:17;;;;;;;14.25;8.32;;;24.50;92.70;;;;;;6121232;28;83784;-64
2023/08/06 04:08:17;;;;;;;7.82;6.82;;;24.60;92.80;;;;;;6119449;28;81115;-64
2023/08/06 04:11:18;;;;;;;11.95;7.45;;;24.60;92.80;;;;;;6129492;28;80943;-65
2023/08/06 04:14:18;;;;;;;11.68;7.60;;;24.60;92.70;;;;;;6128746;28;82153;-64
2023/08/06 04:17:22;;;;;;;11.27;8.43;;;24.60;92.70;;;;;;6117996;28;83677;-65
2023/08/06 04:20:23;;;;;;;9.80;8.07;;;24.60;92.80;;;;;;6126271;28;83359;-64
2023/08/06 04:23:24;;;;;;;10.75;6.95;;;24.60;92.70;;;;;;6118725;28;82449;-66
2023/08/06 04:26:27;;;;;;;14.65;8.35;;;24.60;92.60;;;;;;6142603;28;83355;-65
2023/08/06 04:29:28;;;;;;;11.45;8.25;;;24.60;92.70;;;;;;6124615;28;81617;-64
2023/08/06 04:32:28;;;;;;;11.45;8.20;;;24.50;92.60;;;;;;6118239;28;82538;-64
2023/08/06 04:35:29;;;;;;;11.80;7.72;;;24.60;92.70;;;;;;6141921;28;83371;-66
2023/08/06 04:38:30;;;;;;;12.45;8.35;;;24.60;92.70;;;;;;6094409;28;82953;-66
2023/08/06 04:41:31;;;;;;;11.18;7.68;;;24.60;92.80;;;;;;6110424;28;83946;-64
2023/08/06 04:44:32;;;;;;;10.95;8.43;;;24.60;92.80;;;;;;6098785;28;84275;-65
2023/08/06 04:47:33;;;;;;;9.95;7.35;;;24.60;92.90;;;;;;6104269;28;81197;-65
2023/08/06 04:50:33;;;;;;;11.48;7.88;;;24.60;92.90;;;;;;6103492;28;80603;-63
2023/08/06 04:53:34;;;;;;;11.02;7.40;;;24.60;92.80;;;;;;6117380;28;80705;-56
2023/08/06 04:56:34;;;;;;;9.55;7.65;;;24.60;92.90;;;;;;6121033;28;81856;-56
2023/08/06 04:59:35;;;;;;;11.35;7.28;;;24.60;92.90;;;;;;6111647;28;81480;-56
2023/08/06 05:02:37;;;;;;;9.43;7.22;;;24.60;92.90;;;;;;6131246;28;80912;-54
2023/08/06 05:05:38;;;;;;;9.27;7.30;;;24.60;93.00;;;;;;6111795;28;82589;-56
2023/08/06 05:08:38;;;;;;;8.93;7.07;;;24.60;92.90;;;;;;6111148;28;81455;-55
2023/08/06 05:11:39;;;;;;;8.35;7.03;;;24.60;92.90;;;;;;6108483;28;81994;-64
2023/08/06 05:14:40;;;;;;;9.15;6.55;;;24.50;93.00;;;;;;6125434;28;80738;-62
2023/08/06 05:17:40;;;;;;;11.80;6.82;;;24.50;93.00;;;;;;6119126;28;80307;-67
2023/08/06 05:20:41;;;;;;;9.90;6.63;;;24.60;92.80;;;;;;6099823;28;81125;-65
2023/08/06 05:23:41;;;;;;;8.88;7.03;;;24.60;92.70;;;;;;6113253;28;80285;-65
2023/08/06 05:26:43;;;;;;;10.68;7.03;;;24.60;92.60;;;;;;6099688;28;80961;-65
2023/08/06 05:29:43;;;;;;;10.27;7.05;;;24.60;92.70;;;;;;6113787;28;81988;-65
2023/08/06 05:32:44;;;;;;;10.70;6.90;;;24.60;92.90;;;;;;6125443;28;82930;-63
2023/08/06 05:35:45;;;;;;;10.68;6.55;;;24.60;92.90;;;;;;6122136;28;80811;-62
2023/08/06 05:38:45;;;;;;;10.00;6.70;;;24.70;92.80;;;;;;6123223;28;81344;-63
2023/08/06 05:41:46;;;;;;;8.43;5.97;;;24.70;92.70;;;;;;6119107;28;80655;-64
2023/08/06 05:44:46;;;;;;;10.20;6.57;;;24.70;92.60;;;;;;6112545;28;80935;-63
2023/08/06 05:47:47;;;;;;;8.45;6.38;;;24.70;92.70;;;;;;6118955;28;83521;-61
2023/08/06 05:50:48;;;;;;;10.27;7.60;;;24.70;92.70;;;;;;6130355;28;80460;-61
2023/08/06 05:53:50;;;;;;;8.40;6.50;;;24.60;92.50;;;;;;6117009;28;80629;-59
2023/08/06 05:56:50;;;;;;;11.73;7.53;;;24.70;92.50;;;;;;6112368;28;82827;-61
2023/08/06 05:59:51;;;;;;;10.43;7.78;;;24.70;92.20;;;;;;6119967;28;80471;-61
2023/08/06 06:02:52;;;;;;;9.15;7.22;;;24.70;92.30;;;;;;6133152;28;80541;-65
2023/08/06 06:05:52;;;;;;;12.45;7.28;;;24.70;92.20;;;;;;6126399;28;82889;-63
2023/08/06 06:08:53;;;;;;;12.95;8.85;;;24.70;92.30;;;;;;6128132;28;80265;-59
2023/08/06 06:11:53;;;;;;;12.45;9.02;;;24.70;92.30;;;;;;6115859;28;82507;-49
2023/08/06 06:14:54;;;;;;;16.35;10.57;;;24.70;92.30;;;;;;6111403;28;82823;-58
2023/08/06 06:17:54;;;;;;;14.65;9.75;;;24.70;92.40;;;;;;6106385;28;84954;-56
2023/08/06 06:20:55;;;;;;;14.07;10.32;;;24.70;92.50;;;;;;6132823;28;82978;-57
2023/08/06 06:23:56;;;;;;;15.15;10.18;;;24.70;92.10;;;;;;6121788;28;83274;-56
2023/08/06 06:26:57;;;;;;;16.10;9.75;;;24.70;92.50;;;;;;6112627;28;85239;-58
2023/08/06 06:29:57;;;;;;;12.55;9.30;;;24.70;92.40;;;;;;6124281;28;82067;-59
2023/08/06 06:32:58;;;;;;;14.02;9.35;;;24.70;92.20;;;;;;6118320;28;81084;-59
2023/08/06 06:35:58;;;;;;;14.65;10.05;;;24.70;92.20;;;;;;6126154;28;80783;-58
2023/08/06 06:38:59;;;;;;;13.05;9.73;;;24.70;92.40;;;;;;6113576;28;85486;-59
2023/08/06 06:41:59;;;;;;;15.38;10.43;;;24.70;92.30;;;;;;6119891;28;83039;-58
2023/08/06 06:45:06;;;;;;;11.30;8.10;;;24.70;92.20;;;;;;6112448;28;83937;-58
2023/08/06 06:48:07;;;;;;;11.45;8.63;;;24.70;92.30;;;;;;6122138;28;83410;-59
2023/08/06 06:51:07;;;;;;;9.75;7.93;;;24.70;92.50;;;;;;6129252;28;82306;-59
2023/08/06 06:54:08;;;;;;;11.48;7.78;;;24.70;92.30;;;;;;6119221;28;82603;-59
2023/08/06 06:57:09;;;;;;;9.30;6.80;;;24.70;92.60;;;;;;6127378;28;81458;-57
2023/08/06 07:00:09;;;;;;;8.88;6.95;;;24.70;92.50;;;;;;6123747;28;82326;-55
2023/08/06 07:03:10;;;;;;;9.80;7.00;;;24.70;92.50;;;;;;6131447;28;80424;-66
2023/08/06 07:06:12;;;;;;;10.40;7.07;;;24.70;92.30;;;;;;6126237;28;80336;-69
2023/08/06 07:09:12;;;;;;;11.18;7.45;;;24.70;92.20;;;;;;6112378;28;80311;-69
2023/08/06 07:12:13;;;;;;;9.23;7.13;;;24.70;92.30;;;;;;6124145;28;80832;-66
2023/08/06 07:15:13;;;;;;;10.77;7.63;;;24.80;92.20;;;;;;6123162;28;80594;-69
2023/08/06 07:18:14;;;;;;;8.70;6.53;;;24.70;92.50;;;;;;6121601;28;80155;-69
2023/08/06 07:21:14;;;;;;;9.88;6.32;;;24.80;92.40;;;;;;6112039;28;84855;-70
2023/08/06 07:24:15;;;;;;;8.52;6.43;;;24.70;92.30;;;;;;6128117;28;81486;-70
2023/08/06 07:27:15;;;;;;;10.00;7.70;;;24.70;92.50;;;;;;6131715;28;81078;-70
2023/08/06 07:30:16;;;;;;;9.95;6.78;;;24.70;92.80;;;;;;6120956;28;82822;-70
2023/08/06 07:33:17;;;;;;;8.55;6.72;;;24.60;92.80;;;;;;6148686;28;80355;-69
2023/08/06 07:36:17;;;;;;;12.70;7.82;;;24.60;92.80;;;;;;6140570;28;82408;-71
2023/08/06 07:39:18;;;;;;;12.05;7.20;;;24.60;92.90;;;;;;6133791;28;81581;-49
2023/08/06 07:42:20;;;;;;;10.88;7.68;;;24.60;93.30;;;;;;6119592;28;82556;-50
2023/08/06 07:45:21;;;;;;;10.00;7.78;;;24.60;93.40;;;;;;6113656;28;80562;-52
2023/08/06 07:48:21;;;;;;;12.50;8.57;;;24.40;94.10;;;;;;6106789;28;83089;-47
2023/08/06 07:51:22;;;;;;;12.10;7.55;;;24.40;94.30;;;;;;6115407;28;81746;-48
2023/08/06 07:54:24;;;;;;;7.10;5.75;;;24.40;94.20;;;;;;6137274;28;81087;-50
2023/08/06 07:57:24;;;;;;;9.25;4.18;;;24.30;93.80;;;;;;6108868;28;81496;-51
2023/08/06 08:00:25;;;;;;;3.97;3.08;;;24.20;93.70;;;;;;6128583;28;83118;-51
2023/08/06 08:03:25;;;;;;;5.50;2.53;;;24.20;93.20;;;;;;6118751;28;81771;-48
2023/08/06 08:06:26;;;;;;;2.75;2.03;;;24.20;93.20;;;;;;6129565;28;82614;-52
2023/08/06 08:09:26;;;;;;;2.78;1.70;;;24.30;92.50;;;;;;6127294;28;81613;-47
2023/08/06 08:12:27;;;;;;;1.15;1.05;;;24.20;92.20;;;;;;6122236;28;82774;-48
2023/08/06 08:15:27;;;;;;;1.85;0.98;;;24.10;91.80;;;;;;6131562;28;80587;-50
2023/08/06 08:18:28;;;;;;;1.33;1.00;;;24.10;91.60;;;;;;6120654;28;83078;-54
2023/08/06 08:21:28;;;;;;;1.58;1.10;;;24.10;91.40;;;;;;6131149;28;80389;-47
2023/08/06 08:24:30;;;;;;;1.75;0.85;;;24.00;91.20;;;;;;6117281;28;81094;-48
2023/08/06 08:27:31;;;;;;;0.70;0.70;;;23.90;91.30;;;;;;6131927;28;84592;-46
2023/08/06 08:30:32;;;;;;;3.90;0.68;;;23.90;91.40;;;;;;6129545;28;80944;-46
2023/08/06 08:33:33;;;;;;;2.78;0.77;;;23.80;91.10;;;;;;6132764;28;81555;-47
2023/08/06 08:36:33;;;;;;;3.10;0.70;;;23.70;90.90;;;;;;6159176;28;81352;-47
2023/08/06 08:39:34;;;;;;;2.58;0.57;;;23.70;90.80;;;;;;6133764;28;82522;-49
2023/08/06 08:42:34;;;;;;;1.85;0.80;;;23.60;90.50;;;;;;6121345;28;81361;-50
2023/08/06 08:45:35;;;;;;;0.77;0.60;;;23.60;90.60;;;;;;6106151;28;81245;-49
2023/08/06 08:48:35;;;;;;;1.70;0.88;;;23.60;90.40;;;;;;6120481;28;80532;-48
2023/08/06 08:51:36;;;;;;;2.10;0.77;;;23.70;90.10;;;;;;6125260;28;82548;-68
2023/08/06 08:54:36;;;;;;;1.02;0.70;;;23.80;89.50;;;;;;6120092;28;81731;-69
2023/08/06 08:57:37;;;;;;;0.60;0.60;;;23.80;89.60;;;;;;6132655;28;81008;-69
2023/08/06 09:00:37;;;;;;;4.22;0.73;;;23.90;89.20;;;;;;6127968;28;80397;-70
2023/08/06 09:03:38;;;;;;;0.85;0.60;;;23.90;88.40;;;;;;6127863;28;81219;-71
2023/08/06 09:06:38;;;;;;;3.38;1.05;;;23.90;87.80;;;;;;6127105;28;80738;-70
2023/08/06 09:09:39;;;;;;;2.60;0.85;;;23.90;87.70;;;;;;6131882;28;80594;-71
2023/08/06 09:12:40;;;;;;;1.13;1.02;;;24.00;87.50;;;;;;6140553;28;81633;-69
2023/08/06 09:15:40;;;;;;;0.70;0.70;;;24.00;87.20;;;;;;6116890;28;81141;-67
2023/08/06 09:18:41;;;;;;;3.33;0.85;;;24.00;87.10;;;;;;6126009;28;81233;-70
2023/08/06 09:21:41;;;;;;;5.20;0.70;;;24.00;86.90;;;;;;6119702;28;82905;-68
2023/08/06 09:24:42;;;;;;;1.10;0.77;;;24.10;86.80;;;;;;6123322;28;82216;-67
2023/08/06 09:27:42;;;;;;;3.05;0.73;;;24.10;86.90;;;;;;6115978;28;80698;-70
2023/08/06 09:30:43;;;;;;;0.95;0.70;;;24.10;86.60;;;;;;6129046;28;80380;-54
2023/08/06 09:33:45;;;;;;;3.22;0.80;;;24.20;86.30;;;;;;6126328;28;80803;-47
2023/08/06 09:36:46;;;;;;;3.63;1.23;;;24.20;85.80;;;;;;6113790;28;81806;-51
2023/08/06 09:39:46;;;;;;;2.60;0.93;;;24.30;85.90;;;;;;6125417;28;80446;-51
2023/08/06 09:42:47;;;;;;;1.92;0.90;;;24.30;85.10;;;;;;6105243;28;81883;-49
2023/08/06 09:45:47;;;;;;;1.73;0.65;;;24.30;85.10;;;;;;6116851;28;80525;-51
2023/08/06 09:48:48;;;;;;;1.13;0.63;;;24.30;85.20;;;;;;6114212;28;82197;-49
2023/08/06 09:51:55;;;;;;;1.10;0.82;;;24.30;84.60;;;;;;6125438;28;80391;-45
2023/08/06 09:54:55;;;;;;;1.05;0.80;;;24.30;84.00;;;;;;6124247;28;81392;-47
2023/08/06 09:57:56;;;;;;;1.42;0.60;;;24.30;83.90;;;;;;6119286;28;80585;-46
2023/08/06 10:00:57;;;;;;;2.05;0.90;;;24.30;83.60;;;;;;6128668;28;80315;-47
2023/08/06 10:03:57;;;;;;;2.70;0.80;;;24.30;83.00;;;;;;6114092;28;81001;-46
2023/08/06 10:06:58;;;;;;;2.75;0.90;;;24.30;82.80;;;;;;6127633;28;80185;-52
2023/08/06 10:09:58;;;;;;;3.60;0.82;;;24.30;82.60;;;;;;6116792;28;81915;-51
2023/08/06 10:12:59;;;;;;;1.20;0.80;;;24.30;82.40;;;;;;6130302;28;80873;-46
2023/08/06 10:15:59;;;;;;;1.20;1.10;;;24.20;82.40;;;;;;6128199;28;82986;-49
2023/08/06 10:19:00;;;;;;;1.08;0.90;;;24.20;82.40;;;;;;6117135;28;82373;-49
2023/08/06 10:22:00;;;;;;;1.92;0.90;;;24.20;82.60;;;;;;6127898;28;80643;-49
2023/08/06 10:25:04;;;;;;;0.93;0.68;;;24.20;82.10;;;;;;6120572;28;82352;-57
2023/08/06 10:28:05;;;;;;;2.70;0.98;;;24.20;82.20;;;;;;6128419;28;80223;-54
2023/08/06 10:31:05;;;;;;;1.00;0.85;;;24.20;81.90;;;;;;6118344;28;80819;-52
2023/08/06 10:34:06;;;;;;;1.00;0.90;;;24.20;81.90;;;;;;6125857;28;81676;-53
2023/08/06 10:37:06;;;;;;;3.22;1.10;;;24.20;81.90;;;;;;6115260;28;83346;-55
2023/08/06 10:40:07;;;;;;;2.00;1.13;;;24.20;82.30;;;;;;6121184;28;81762;-54
2023/08/06 10:43:10;;;;;;;3.83;1.42;;;24.30;82.10;;;;;;6130522;28;80452;-62
2023/08/06 10:46:10;;;;;;;1.60;1.08;;;24.30;82.10;;;;;;6112884;28;81831;-61
2023/08/06 10:49:11;;;;;;;1.90;1.10;;;24.30;82.70;;;;;;6130918;28;81285;-61
2023/08/06 10:52:11;;;;;;;1.30;0.95;;;24.30;81.50;;;;;;6138007;28;80450;-59
2023/08/06 10:55:12;;;;;;;1.70;1.40;;;24.30;81.70;;;;;;6127684;28;83755;-63
2023/08/06 10:58:12;;;;;;;2.28;1.40;;;24.30;80.70;;;;;;6107265;28;80897;-61
2023/08/06 11:01:13;;;;;;;2.72;1.00;;;24.30;80.90;;;;;;6116520;28;80208;-64
2023/08/06 11:04:16;;;;;;;0.90;0.90;;;24.30;80.90;;;;;;6133991;28;80479;-62
2023/08/06 11:07:17;;;;;;;2.45;1.20;;;24.30;80.40;;;;;;6123029;28;82844;-63
2023/08/06 11:10:17;;;;;;;1.00;0.90;;;24.30;80.00;;;;;;6132322;28;80316;-61
2023/08/06 11:13:21;;;;;;;0.80;0.80;;;24.00;78.80;;;;;;6123166;28;82848;-61
2023/08/06 11:16:21;;;;;;;3.88;1.25;;;23.80;80.00;;;;;;6127314;28;80567;-62
2023/08/06 11:19:23;;;;;;;0.75;0.70;;;23.80;80.30;;;;;;6124853;28;81127;-68
2023/08/06 11:22:23;;;;;;;3.70;0.90;;;23.80;80.10;;;;;;6122288;28;80715;-69
2023/08/06 11:25:24;;;;;;;1.30;1.00;;;23.70;79.70;;;;;;6129157;28;80085;-68
2023/08/06 11:28:24;;;;;;;3.22;0.88;;;23.60;80.10;;;;;;6110277;28;81362;-64
2023/08/06 11:31:25;;;;;;;1.05;0.60;;;23.60;80.00;;;;;;6126333;28;83557;-65
2023/08/06 11:34:25;;;;;;;2.40;0.70;;;23.60;79.70;;;;;;6121257;28;81890;-68
2023/08/06 11:37:26;;;;;;;1.38;1.13;;;23.60;80.00;;;;;;6131349;28;87238;-68
2023/08/06 11:40:26;;;;;;;2.85;1.60;;;23.70;79.40;;;;;;6125776;28;81293;-67
2023/08/06 11:43:27;;;;;;;2.72;1.83;;;23.70;79.30;;;;;;6116915;28;82692;-68
2023/08/06 11:46:27;;;;;;;6.45;1.30;;;23.80;79.30;;;;;;6116274;28;82881;-69
2023/08/06 11:49:28;;;;;;;1.98;1.42;;;23.80;78.90;;;;;;6122561;28;82382;-65
2023/08/06 11:52:28;;;;;;;1.05;0.93;;;23.80;79.10;;;;;;6121430;28;81517;-65
2023/08/06 11:55:29;;;;;;;2.17;0.90;;;23.90;78.80;;;;;;6114548;28;81585;-68
2023/08/06 11:58:29;;;;;;;1.23;1.10;;;23.70;78.40;;;;;;6109292;28;80501;-68
2023/08/06 12:01:30;;;;;;;1.50;0.77;;;23.70;79.00;;;;;;6118067;28;80953;-67
2023/08/06 12:04:30;;;;;;;1.55;1.10;;;23.70;78.70;;;;;;6114915;28;82631;-70
2023/08/06 12:07:31;;;;;;;1.45;1.08;;;23.50;78.00;;;;;;6125625;28;83132;-70
2023/08/06 12:10:31;;;;;;;0.90;0.90;;;23.40;78.80;;;;;;6116284;28;83104;-70
2023/08/06 12:13:32;;;;;;;1.05;0.70;;;23.40;78.70;;;;;;6112251;28;81579;-68
2023/08/06 12:16:32;;;;;;;0.70;0.70;;;23.20;78.30;;;;;;6106217;28;80585;-68
2023/08/06 12:19:33;;;;;;;0.50;0.50;;;23.10;78.40;;;;;;6130084;28;80812;-67
2023/08/06 12:22:38;;;;;;;0.60;0.60;;;23.20;77.90;;;;;;6114155;28;80864;-67
2023/08/06 12:25:38;;;;;;;3.17;0.60;;;23.00;78.30;;;;;;6117687;28;80910;-68
2023/08/06 12:28:39;;;;;;;1.08;0.60;;;23.00;78.20;;;;;;6127995;28;80400;-64
2023/08/06 12:31:39;;;;;;;1.15;0.73;;;23.10;77.80;;;;;;6119585;28;82680;-67
2023/08/06 12:34:40;;;;;;;1.80;0.70;;;23.20;77.20;;;;;;6121682;28;85839;-66
2023/08/06 12:37:42;;;;;;;1.40;0.50;;;23.20;77.50;;;;;;6115627;28;82745;-67
2023/08/06 12:40:42;;;;;;;1.00;0.50;;;23.10;77.70;;;;;;6124125;28;80584;-65
2023/08/06 12:43:43;;;;;;;0.60;0.60;;;23.20;77.60;;;;;;6115121;28;80289;-64
2023/08/06 12:46:43;;;;;;;0.50;0.50;;;23.30;77.30;;;;;;6108806;28;81251;-64
2023/08/06 12:49:44;;;;;;;0.70;0.70;;;23.30;76.80;;;;;;6130128;28;80644;-63
2023/08/06 12:52:44;;;;;;;0.65;0.65;;;23.30;76.80;;;;;;6127029;28;81689;-49
2023/08/06 12:55:45;;;;;;;2.35;1.05;;;23.40;77.00;;;;;;6129831;28;81004;-52
2023/08/06 12:58:46;;;;;;;1.88;1.13;;;23.40;76.70;;;;;;6118421;28;82778;-49
2023/08/06 13:01:46;;;;;;;0.95;0.70;;;23.40;76.20;;;;;;6129654;28;80667;-47
2023/08/06 13:04:47;;;;;;;1.27;0.80;;;23.50;76.00;;;;;;6122158;28;81705;-53
2023/08/06 13:07:47;;;;;;;0.70;0.70;;;23.50;75.70;;;;;;6121431;28;82724;-51
2023/08/06 13:10:48;;;;;;;0.80;0.60;;;23.30;76.00;;;;;;6130455;28;80469;-48
2023/08/06 13:13:48;;;;;;;1.27;0.98;;;23.00;76.70;;;;;;6105265;28;82539;-52
2023/08/06 13:16:49;;;;;;;3.55;1.10;;;23.00;77.40;;;;;;6127876;28;80566;-45
2023/08/06 13:19:49;;;;;;;5.28;1.25;;;23.00;77.70;;;;;;6118220;28;81581;-49
2023/08/06 13:22:52;;;;;;;1.52;0.77;;;22.90;77.80;;;;;;6127147;28;80513;-51
2023/08/06 13:25:53;;;;;;;1.10;0.70;;;22.80;78.20;;;;;;6128127;28;80375;-47
2023/08/06 13:28:54;;;;;;;5.10;0.90;;;22.90;78.20;;;;;;6118366;28;81609;-68
2023/08/06 13:31:54;;;;;;;1.67;0.90;;;22.80;78.10;;;;;;6127801;28;80970;-70
2023/08/06 13:34:55;;;;;;;1.00;0.73;;;23.00;77.90;;;;;;6128789;28;83469;-71
2023/08/06 13:37:55;;;;;;;1.55;0.82;;;22.90;77.70;;;;;;6125281;28;84065;-71
2023/08/06 13:40:56;;;;;;;0.63;0.63;;;23.10;77.60;;;;;;6108134;28;83625;-67
2023/08/06 13:43:56;;;;;;;0.60;0.60;;;23.10;77.60;;;;;;6132994;28;81061;-64
2023/08/06 13:46:57;;;;;;;1.92;1.20;;;23.10;77.50;;;;;;6125073;28;81299;-55
2023/08/06 13:49:57;;;;;;;3.08;0.73;;;23.00;77.60;;;;;;6120366;28;82577;-52
2023/08/06 13:52:58;;;;;;;1.20;1.10;;;23.10;77.70;;;;;;6129405;28;81089;-51
2023/08/06 13:55:58;;;;;;;1.60;0.80;;;23.10;77.40;;;;;;6103824;28;80857;-51
2023/08/06 13:58:59;;;;;;;3.42;0.70;;;23.10;77.10;;;;;;6129597;28;81442;-50
2023/08/06 14:01:59;;;;;;;1.17;0.80;;;23.10;77.40;;;;;;6119799;28;82394;-54
2023/08/06 14:05:00;;;;;;;1.13;0.73;;;23.20;77.00;;;;;;6122789;28;80885;-52
2023/08/06 14:08:01;;;;;;;0.88;0.70;;;23.20;77.10;;;;;;6132237;28;80978;-51
2023/08/06 14:11:01;;;;;;;1.42;0.80;;;23.20;76.80;;;;;;6121030;28;82213;-52
2023/08/06 14:14:02;;;;;;;0.52;0.52;;;23.20;76.80;;;;;;6127437;28;81213;-51
2023/08/06 14:17:03;;;;;;;1.38;0.88;;;23.20;76.60;;;;;;6122303;28;79990;-51
2023/08/06 14:20:04;;;;;;;0.65;0.60;;;23.40;76.50;;;;;;6131610;28;81185;-53
2023/08/06 14:23:04;;;;;;;1.27;0.60;;;23.40;76.50;;;;;;6123601;28;80445;-49
2023/08/06 14:26:05;;;;;;;1.00;0.70;;;23.30;76.50;;;;;;6129834;28;81967;-48
2023/08/06 14:29:05;;;;;;;1.25;0.60;;;23.20;76.90;;;;;;6132585;28;80906;-49
2023/08/06 14:32:06;;;;;;;3.75;0.82;;;23.20;77.20;;;;;;6146459;28;87305;-54
2023/08/06 14:35:06;;;;;;;1.17;0.77;;;23.10;77.20;;;;;;6160428;28;80350;-52
2023/08/06 14:38:07;;;;;;;3.38;1.02;;;23.10;77.40;;;;;;6147984;28;80647;-50
2023/08/06 14:41:08;;;;;;;1.00;0.68;;;23.10;77.80;;;;;;6129630;28;81289;-68
2023/08/06 14:44:08;;;;;;;0.73;0.70;;;23.10;77.60;;;;;;6115240;28;82010;-67
2023/08/06 14:47:09;;;;;;;1.40;0.90;;;23.10;78.00;;;;;;6133773;28;80727;-63
2023/08/06 14:50:09;;;;;;;1.02;0.70;;;23.20;77.90;;;;;;6137568;28;80897;-65
2023/08/06 14:53:11;;;;;;;1.55;0.80;;;23.30;77.60;;;;;;6131202;28;80534;-69
2023/08/06 14:56:12;;;;;;;6.40;0.93;;;23.40;77.60;;;;;;6129170;28;81124;-69
2023/08/06 14:59:13;;;;;;;1.00;0.80;;;23.30;77.40;;;;;;6120942;28;80303;-64
2023/08/06 15:02:13;;;;;;;4.10;0.82;;;23.20;78.00;;;;;;6139843;28;80837;-66
2023/08/06 15:05:14;;;;;;;0.98;0.77;;;23.20;78.20;;;;;;6116643;28;80798;-63
2023/08/06 15:08:14;;;;;;;1.15;0.80;;;23.30;77.80;;;;;;6127316;28;81080;-63
2023/08/06 15:11:15;;;;;;;1.23;0.90;;;23.20;77.60;;;;;;6142777;28;80840;-64
2023/08/06 15:14:15;;;;;;;0.70;0.70;;;23.10;77.60;;;;;;6099537;28;80456;-63
2023/08/06 15:17:16;;;;;;;1.02;0.60;;;22.90;78.20;;;;;;6129239;28;82642;-60
2023/08/06 15:20:16;;;;;;;0.77;0.55;;;22.90;78.60;;;;;;6116601;28;82328;-60
2023/08/06 15:23:17;;;;;;;3.17;0.50;;;22.80;78.80;;;;;;6124734;28;81481;-60
2023/08/06 15:26:18;;;;;;;0.77;0.52;;;22.80;79.00;;;;;;6127264;28;82332;-60
2023/08/06 15:29:18;;;;;;;0.47;0.47;;;22.90;78.20;;;;;;6129104;28;81586;-61
2023/08/06 15:32:20;;;;;;;2.78;0.50;;;22.70;78.30;;;;;;6123221;28;80298;-61